Terminal Aerodrome Forecast
Issued by NWS Charleston, WV

Current Version | Previous Version | Graphics & Text | Print | Product List | Glossary On
Versions: 1 2 3 4 5 6 7 8 9 10 11 12 13 14 15 16 17 18 19 20 21 22 23 24 25 26 27 28 29 30
000
FTUS41 KRLX 190700 AAA
TAFBKW
TAF AMD
KBKW 190751Z 1908/2006 32005KT P6SM BKN012
      TEMPO 1908/1912 BKN008
     FM191500 30005KT P6SM SCT035
     FM200200 VRB03KT P6SM BKN080=

USA.gov is the U.S. government's official web portal to all federal, state and local government web resources and services.